Time;durP1;ratioP1;P1;durP2;ratioP2;P2;SDS_P1;SDS_P2;PMS_P1;PMS_P2;Temp;Humidity;BMP_temperature;BMP_pressure;BME280_temperature;BME280_humidity;BME280_pressure;Samples;Min_cycle;Max_cycle;Signal;HPM_P1;HPM_P2
2022/07/26 00:01:07;;;;;;;8.95;5.30;;;28.40;48.60;;;;;;5051643;28;20423;-79
2022/07/26 00:03:33;;;;;;;6.25;5.20;;;28.20;49.00;;;;;;5052833;28;20025;-78
2022/07/26 00:05:59;;;;;;;7.15;5.10;;;28.10;49.10;;;;;;5054309;28;20032;-79
2022/07/26 00:08:25;;;;;;;6.85;5.40;;;28.10;49.40;;;;;;5052547;28;20559;-78
2022/07/26 00:10:51;;;;;;;7.60;5.35;;;28.00;50.00;;;;;;5054112;28;20432;-78
2022/07/26 00:13:19;;;;;;;7.35;5.45;;;27.80;50.40;;;;;;5043575;28;20036;-79
2022/07/26 00:15:47;;;;;;;6.30;5.55;;;27.90;50.40;;;;;;5053696;28;20021;-78
2022/07/26 00:18:14;;;;;;;10.05;5.80;;;27.90;51.40;;;;;;5053824;28;20087;-79
2022/07/26 00:20:40;;;;;;;8.65;5.50;;;27.80;50.80;;;;;;5052173;28;20094;-78
2022/07/26 00:23:06;;;;;;;8.13;5.90;;;27.90;50.90;;;;;;5051408;28;20052;-79
2022/07/26 00:25:31;;;;;;;8.70;5.80;;;27.80;50.90;;;;;;5053767;28;20879;-78
2022/07/26 00:27:57;;;;;;;8.38;5.82;;;27.70;50.80;;;;;;5053691;28;20021;-78
2022/07/26 00:30:23;;;;;;;10.55;5.90;;;27.80;51.00;;;;;;5053640;28;20035;-78
2022/07/26 00:32:49;;;;;;;8.18;6.18;;;27.80;51.10;;;;;;5050203;28;20103;-78
2022/07/26 00:35:15;;;;;;;7.78;5.90;;;27.80;51.10;;;;;;5032542;28;20480;-78
2022/07/26 00:37:41;;;;;;;9.45;5.93;;;27.90;51.30;;;;;;5032405;28;20072;-78
2022/07/26 00:40:08;;;;;;;9.65;5.90;;;27.90;51.10;;;;;;5032122;28;20025;-77
2022/07/26 00:42:34;;;;;;;8.40;6.68;;;27.90;51.00;;;;;;5033050;28;20037;-77
2022/07/26 00:45:00;;;;;;;7.18;5.60;;;27.90;51.30;;;;;;5050391;28;20037;-78
2022/07/26 00:47:26;;;;;;;7.15;6.05;;;27.90;50.80;;;;;;5052005;28;20147;-77
2022/07/26 00:49:51;;;;;;;8.20;6.55;;;28.00;51.30;;;;;;5052236;28;20029;-77
2022/07/26 00:52:17;;;;;;;8.13;5.95;;;27.80;51.00;;;;;;5051841;28;20023;-79
2022/07/26 00:54:45;;;;;;;7.68;5.85;;;27.70;51.20;;;;;;5033728;28;20033;-78
2022/07/26 00:57:12;;;;;;;7.82;5.70;;;27.70;51.50;;;;;;5033396;28;20018;-77
2022/07/26 00:59:38;;;;;;;10.32;5.55;;;27.80;51.40;;;;;;5033074;28;20042;-78
2022/07/26 01:02:06;;;;;;;8.57;5.78;;;27.70;51.20;;;;;;5064794;28;20033;-78
2022/07/26 01:04:33;;;;;;;7.30;5.97;;;27.70;51.40;;;;;;5032846;28;20415;-78
2022/07/26 01:06:59;;;;;;;6.65;5.95;;;27.60;51.20;;;;;;5033164;28;20057;-77
2022/07/26 01:09:24;;;;;;;8.32;6.15;;;27.70;51.40;;;;;;5034356;28;20115;-77
2022/07/26 01:11:50;;;;;;;7.30;6.18;;;27.80;51.10;;;;;;5031889;28;20033;-77
2022/07/26 01:14:20;;;;;;;10.20;5.85;;;27.70;51.00;;;;;;5032955;28;20032;-78
2022/07/26 01:16:46;;;;;;;7.85;6.00;;;27.70;51.40;;;;;;5031580;28;20400;-77
2022/07/26 01:19:12;;;;;;;8.85;6.60;;;27.60;51.40;;;;;;5033771;28;20484;-79
2022/07/26 01:21:38;;;;;;;7.97;7.05;;;27.60;51.40;;;;;;5052763;28;20376;-79
2022/07/26 01:24:04;;;;;;;10.38;6.15;;;27.40;51.40;;;;;;5052797;28;20468;-77
2022/07/26 01:26:29;;;;;;;9.98;6.50;;;27.30;51.70;;;;;;5052361;28;20041;-78
2022/07/26 01:28:55;;;;;;;8.23;6.45;;;27.20;51.90;;;;;;5035013;28;20025;-78
2022/07/26 01:31:21;;;;;;;10.15;6.20;;;27.20;52.60;;;;;;5031617;28;20033;-78
2022/07/26 01:33:47;;;;;;;10.18;6.47;;;27.10;52.50;;;;;;5032483;28;20022;-78
2022/07/26 01:36:13;;;;;;;9.73;6.47;;;27.00;52.50;;;;;;5032675;28;20049;-79
2022/07/26 01:38:40;;;;;;;10.90;6.57;;;27.10;52.40;;;;;;5032318;28;20070;-78
2022/07/26 01:41:06;;;;;;;8.85;6.70;;;27.00;52.50;;;;;;5031234;28;20057;-77
2022/07/26 01:43:32;;;;;;;7.90;6.50;;;27.10;52.60;;;;;;5031340;28;20179;-77
2022/07/26 01:45:58;;;;;;;10.48;6.25;;;27.10;52.40;;;;;;5032698;28;20029;-78
2022/07/26 01:48:23;;;;;;;7.63;6.20;;;27.10;52.00;;;;;;5030766;28;20540;-78
2022/07/26 01:50:49;;;;;;;8.77;6.53;;;26.70;52.90;;;;;;5031168;28;20132;-77
2022/07/26 01:53:15;;;;;;;9.70;6.13;;;26.90;52.50;;;;;;5031328;28;20025;-77
2022/07/26 01:55:41;;;;;;;10.57;6.70;;;27.30;52.10;;;;;;5031302;28;20392;-78
2022/07/26 01:58:07;;;;;;;8.75;6.60;;;27.50;51.60;;;;;;5040004;28;20021;-78
2022/07/26 02:00:33;;;;;;;10.85;6.30;;;27.30;51.80;;;;;;5051305;28;20066;-77
2022/07/26 02:02:59;;;;;;;8.65;6.47;;;27.30;52.10;;;;;;5052550;28;20544;-77
2022/07/26 02:05:26;;;;;;;8.98;6.38;;;27.30;52.20;;;;;;5050953;28;20032;-77
2022/07/26 02:07:52;;;;;;;8.48;6.40;;;27.30;52.10;;;;;;5050212;28;20120;-78
2022/07/26 02:10:18;;;;;;;8.20;6.20;;;27.30;52.30;;;;;;5050985;28;20040;-77
2022/07/26 02:12:43;;;;;;;10.52;6.85;;;27.30;52.30;;;;;;5051061;28;20032;-77
2022/07/26 02:15:10;;;;;;;8.75;6.55;;;27.30;52.40;;;;;;5086339;28;20043;-77
2022/07/26 02:17:36;;;;;;;7.93;6.45;;;27.30;52.20;;;;;;5056039;28;20021;-78
2022/07/26 02:20:03;;;;;;;8.95;6.40;;;27.30;52.40;;;;;;5054552;28;20124;-78
2022/07/26 02:22:29;;;;;;;12.50;6.47;;;27.00;53.20;;;;;;5054840;28;20021;-77
2022/07/26 02:24:55;;;;;;;8.27;6.50;;;27.00;53.00;;;;;;5051329;28;20043;-79
2022/07/26 02:27:21;;;;;;;10.07;7.00;;;26.90;53.00;;;;;;5035666;28;20380;-78
2022/07/26 02:29:46;;;;;;;9.75;6.78;;;26.80;53.30;;;;;;5035627;28;20025;-78
2022/07/26 02:32:12;;;;;;;8.35;6.97;;;26.70;53.30;;;;;;5052163;28;20530;-78
2022/07/26 02:34:39;;;;;;;9.60;7.30;;;26.60;53.50;;;;;;5054778;28;20021;-77
2022/07/26 02:37:05;;;;;;;8.77;6.97;;;26.60;53.50;;;;;;5054383;28;20024;-78
2022/07/26 02:39:30;;;;;;;7.72;6.70;;;26.50;53.80;;;;;;5055371;28;20017;-78
2022/07/26 02:41:59;;;;;;;9.35;6.35;;;26.60;53.60;;;;;;5053482;28;20028;-77
2022/07/26 02:44:26;;;;;;;9.55;6.97;;;26.60;53.40;;;;;;5054191;28;20060;-77
2022/07/26 02:46:52;;;;;;;8.82;6.78;;;26.40;53.70;;;;;;5054330;28;20112;-77
2022/07/26 02:49:18;;;;;;;8.18;6.63;;;26.40;53.90;;;;;;5055756;28;20112;-77
2022/07/26 02:51:45;;;;;;;9.52;6.38;;;26.50;54.10;;;;;;5052480;28;20104;-76
2022/07/26 02:54:11;;;;;;;7.40;5.63;;;26.30;53.70;;;;;;5055624;28;20108;-76
2022/07/26 02:56:37;;;;;;;10.45;6.38;;;26.00;54.50;;;;;;5055707;28;20047;-77
2022/07/26 02:59:03;;;;;;;9.25;6.50;;;25.80;55.30;;;;;;5053703;28;20045;-78
2022/07/26 03:01:29;;;;;;;9.05;6.90;;;26.00;54.80;;;;;;5038104;28;20037;-78
2022/07/26 03:03:55;;;;;;;9.77;6.22;;;26.30;54.20;;;;;;5035276;28;20105;-77
2022/07/26 03:06:21;;;;;;;9.93;6.65;;;26.60;53.90;;;;;;5034072;28;20021;-78
2022/07/26 03:08:48;;;;;;;8.63;6.95;;;26.60;53.60;;;;;;5034024;28;20121;-78
2022/07/26 03:11:14;;;;;;;10.20;7.15;;;26.70;53.70;;;;;;5033666;28;20039;-77
2022/07/26 03:13:40;;;;;;;10.23;6.82;;;26.60;53.70;;;;;;5035020;28;20037;-77
2022/07/26 03:16:08;;;;;;;7.80;6.50;;;26.60;53.60;;;;;;5050300;28;20036;-77
2022/07/26 03:18:34;;;;;;;8.75;6.65;;;26.60;53.50;;;;;;5050337;28;20053;-78
2022/07/26 03:21:00;;;;;;;8.50;7.30;;;26.80;53.50;;;;;;5049336;28;20060;-78
2022/07/26 03:23:25;;;;;;;11.32;7.00;;;26.90;53.50;;;;;;5053557;28;20480;-78
2022/07/26 03:25:52;;;;;;;8.63;6.72;;;26.80;53.40;;;;;;5054387;28;20047;-76
2022/07/26 03:28:18;;;;;;;8.43;6.85;;;26.70;53.50;;;;;;5054901;28;20052;-77
2022/07/26 03:30:43;;;;;;;12.00;7.50;;;26.70;53.80;;;;;;5044332;28;20056;-78
2022/07/26 03:33:09;;;;;;;9.32;7.35;;;26.70;53.70;;;;;;5035053;28;20544;-77
2022/07/26 03:35:35;;;;;;;10.73;6.93;;;26.70;53.60;;;;;;5034834;28;20025;-77
2022/07/26 03:38:00;;;;;;;9.63;6.70;;;26.90;53.50;;;;;;5033809;28;20477;-77
2022/07/26 03:40:27;;;;;;;10.38;7.20;;;27.00;53.50;;;;;;5034632;28;20041;-77
2022/07/26 03:42:53;;;;;;;8.60;7.03;;;26.90;53.50;;;;;;5034652;28;20017;-77
2022/07/26 03:45:19;;;;;;;9.05;6.43;;;27.00;53.60;;;;;;5034398;28;20413;-77
2022/07/26 03:47:45;;;;;;;9.02;6.78;;;26.90;53.70;;;;;;5034684;28;20031;-76
2022/07/26 03:50:12;;;;;;;10.27;7.25;;;26.80;54.20;;;;;;5051496;28;20510;-77
2022/07/26 03:52:38;;;;;;;8.60;6.72;;;26.90;54.00;;;;;;5054221;28;20025;-77
2022/07/26 03:57:52;;;;;;;8.82;6.72;;;27.00;53.70;;;;;;5051051;28;20037;-77
2022/07/26 04:00:18;;;;;;;10.00;7.25;;;27.10;53.60;;;;;;5035341;28;20543;-77
2022/07/26 04:02:43;;;;;;;9.40;6.30;;;27.30;53.60;;;;;;5051684;28;20041;-77
2022/07/26 04:05:10;;;;;;;12.73;6.70;;;27.50;53.60;;;;;;5042001;28;20040;-75
2022/07/26 04:07:43;;;;;;;9.77;6.65;;;27.60;53.20;;;;;;5031768;28;20562;-76
2022/07/26 04:10:09;;;;;;;9.52;6.90;;;27.70;53.30;;;;;;5032203;28;20037;-77
2022/07/26 04:12:35;;;;;;;13.80;6.55;;;27.90;53.50;;;;;;5035483;28;20029;-77
2022/07/26 04:15:01;;;;;;;9.75;6.05;;;28.00;53.30;;;;;;5044661;28;20122;-77
2022/07/26 04:17:26;;;;;;;9.52;6.30;;;28.20;52.90;;;;;;5037555;28;20091;-77
2022/07/26 04:19:52;;;;;;;10.77;6.55;;;28.30;53.20;;;;;;5031997;28;20065;-77
2022/07/26 04:22:17;;;;;;;10.25;6.80;;;28.40;52.90;;;;;;5032661;28;20585;-78
2022/07/26 04:24:43;;;;;;;10.30;6.70;;;28.40;52.90;;;;;;5034737;28;20561;-77
2022/07/26 04:27:09;;;;;;;9.80;6.43;;;28.50;53.20;;;;;;5051958;28;20053;-77
2022/07/26 04:29:34;;;;;;;9.15;6.20;;;28.50;53.00;;;;;;5051868;28;20081;-77
2022/07/26 04:32:00;;;;;;;10.10;6.20;;;28.60;53.30;;;;;;5051266;28;20063;-78
2022/07/26 04:34:26;;;;;;;7.72;6.00;;;28.60;53.60;;;;;;5045879;28;20076;-77
2022/07/26 04:36:51;;;;;;;7.97;6.30;;;28.60;53.40;;;;;;5031702;28;20029;-78
2022/07/26 04:39:23;;;;;;;10.70;5.90;;;28.70;53.30;;;;;;5032479;28;20484;-77
2022/07/26 04:41:49;;;;;;;9.07;6.18;;;28.80;53.10;;;;;;5046337;28;20041;-77
2022/07/26 04:44:15;;;;;;;8.30;5.70;;;28.80;53.00;;;;;;5053094;28;20029;-77
2022/07/26 04:46:40;;;;;;;7.55;5.30;;;28.40;52.70;;;;;;5053175;28;20029;-78
2022/07/26 04:49:06;;;;;;;8.25;6.03;;;28.20;53.30;;;;;;5053187;28;20112;-79
2022/07/26 04:51:32;;;;;;;8.65;5.72;;;28.50;53.10;;;;;;5040135;28;20096;-78
2022/07/26 04:53:57;;;;;;;9.07;5.13;;;28.80;51.60;;;;;;5032488;28;20052;-77
2022/07/26 04:56:23;;;;;;;7.88;5.35;;;28.90;51.10;;;;;;5049725;28;20040;-79
2022/07/26 04:58:49;;;;;;;6.93;5.07;;;29.10;50.80;;;;;;5033858;28;20042;-78
2022/07/26 05:01:14;;;;;;;9.88;5.55;;;29.20;50.60;;;;;;5035810;28;20095;-76
2022/07/26 05:03:40;;;;;;;8.45;4.75;;;29.10;49.80;;;;;;5043509;28;20033;-79
2022/07/26 05:06:06;;;;;;;11.50;5.43;;;29.00;50.50;;;;;;5051835;28;20499;-77
2022/07/26 05:08:32;;;;;;;6.90;5.10;;;29.10;50.70;;;;;;5053175;28;20036;-80
2022/07/26 05:10:58;;;;;;;9.18;4.85;;;29.20;51.40;;;;;;5055018;28;20035;-87
2022/07/26 05:13:23;;;;;;;11.48;5.63;;;29.50;52.20;;;;;;5053966;28;20025;-80
2022/07/26 05:15:49;;;;;;;9.07;5.57;;;29.60;52.70;;;;;;5052998;28;20158;-79
2022/07/26 05:18:15;;;;;;;7.25;4.80;;;29.70;52.40;;;;;;5054660;28;20531;-77
2022/07/26 05:20:41;;;;;;;8.00;5.15;;;30.00;51.60;;;;;;5044782;28;20121;-80
2022/07/26 05:23:08;;;;;;;7.57;5.05;;;30.20;50.50;;;;;;5033698;28;20121;-81
2022/07/26 05:25:34;;;;;;;7.07;4.70;;;30.40;50.10;;;;;;5033972;28;20052;-80
2022/07/26 05:27:59;;;;;;;8.65;4.90;;;30.60;49.00;;;;;;5033772;28;20068;-78
2022/07/26 05:30:25;;;;;;;7.43;4.60;;;30.80;48.80;;;;;;5032757;28;20065;-79
2022/07/26 05:32:52;;;;;;;8.13;4.97;;;30.70;49.20;;;;;;5046387;28;20036;-81
2022/07/26 05:35:17;;;;;;;11.20;5.72;;;30.90;49.10;;;;;;5034922;28;20489;-81
2022/07/26 05:37:43;;;;;;;8.05;5.00;;;31.00;48.70;;;;;;5034568;28;20108;-80
2022/07/26 05:40:09;;;;;;;7.65;5.03;;;31.20;48.50;;;;;;5050017;28;20531;-81
2022/07/26 05:42:35;;;;;;;7.38;5.18;;;31.50;48.40;;;;;;5034367;28;20031;-86
2022/07/26 05:45:02;;;;;;;7.43;4.95;;;31.60;48.40;;;;;;5033486;28;20060;-80
2022/07/26 05:47:27;;;;;;;8.57;5.57;;;31.80;48.40;;;;;;5049203;28;20033;-81
2022/07/26 05:49:54;;;;;;;8.57;5.53;;;31.80;48.30;;;;;;5061878;28;20079;-82
2022/07/26 05:52:20;;;;;;;8.93;5.50;;;32.00;48.40;;;;;;5037251;28;20452;-77
2022/07/26 05:54:46;;;;;;;9.73;5.50;;;32.10;48.30;;;;;;5042443;28;20017;-78
2022/07/26 05:57:11;;;;;;;8.25;5.15;;;32.10;48.20;;;;;;5057904;28;20021;-79
2022/07/26 05:59:37;;;;;;;10.82;5.80;;;32.20;47.90;;;;;;5057773;28;20124;-82
2022/07/26 06:02:03;;;;;;;13.73;5.60;;;32.10;48.10;;;;;;5054435;28;20025;-77
2022/07/26 06:04:29;;;;;;;7.68;5.55;;;31.90;48.10;;;;;;4356465;28;10000687;-79
2022/07/26 06:06:54;;;;;;;10.48;5.50;;;31.70;48.30;;;;;;5054364;28;20029;-84
2022/07/26 06:09:22;;;;;;;10.50;5.78;;;31.90;48.50;;;;;;5057031;28;20028;-79
2022/07/26 06:11:48;;;;;;;9.23;5.90;;;32.30;48.50;;;;;;5054100;28;20494;-80
2022/07/26 06:14:14;;;;;;;8.05;5.30;;;32.40;48.40;;;;;;5053455;28;20491;-78
2022/07/26 06:16:40;;;;;;;18.85;6.53;;;32.60;48.40;;;;;;5053681;28;20052;-79
2022/07/26 06:19:05;;;;;;;10.00;5.72;;;32.70;48.10;;;;;;5050436;28;20393;-78
2022/07/26 06:21:31;;;;;;;7.82;5.70;;;32.80;48.20;;;;;;5049405;28;20051;-78
2022/07/26 06:23:58;;;;;;;7.95;5.97;;;32.60;48.20;;;;;;5053431;28;20391;-81
2022/07/26 06:26:24;;;;;;;9.85;5.68;;;32.40;48.40;;;;;;5055216;28;20390;-78
2022/07/26 06:28:50;;;;;;;8.23;5.78;;;32.50;48.60;;;;;;5054638;28;20032;-85
2022/07/26 06:31:19;;;;;;;11.90;6.03;;;32.60;48.40;;;;;;5052657;28;20125;-84
2022/07/26 06:33:44;;;;;;;11.68;5.95;;;32.70;48.30;;;;;;5040169;28;20024;-77
2022/07/26 06:36:10;;;;;;;10.52;6.03;;;32.90;48.40;;;;;;5037246;28;20021;-81
2022/07/26 06:38:36;;;;;;;8.65;5.93;;;32.80;48.70;;;;;;5055762;28;20171;-80
2022/07/26 06:41:02;;;;;;;10.73;6.20;;;33.00;48.40;;;;;;5051814;28;20045;-82
2022/07/26 06:43:27;;;;;;;11.32;6.05;;;33.00;48.10;;;;;;5054866;28;20430;-79
2022/07/26 06:45:53;;;;;;;11.55;6.35;;;33.00;48.30;;;;;;5059583;28;20025;-80
2022/07/26 06:48:19;;;;;;;10.10;5.70;;;33.30;48.40;;;;;;5046587;28;20037;-78
2022/07/26 06:50:45;;;;;;;9.85;5.85;;;33.50;47.90;;;;;;5050559;28;20380;-75
2022/07/26 06:53:10;;;;;;;8.30;5.93;;;33.60;47.90;;;;;;5056958;28;20479;-83
2022/07/26 06:55:36;;;;;;;10.43;5.60;;;33.70;48.00;;;;;;5056753;28;20074;-86
2022/07/26 06:58:02;;;;;;;11.10;6.05;;;33.80;48.10;;;;;;5053756;28;20025;-82
2022/07/26 07:00:28;;;;;;;7.47;5.80;;;34.00;48.00;;;;;;5065139;28;20053;-85
2022/07/26 07:02:53;;;;;;;9.98;5.95;;;34.00;48.30;;;;;;5053915;28;20040;-87
2022/07/26 07:05:19;;;;;;;10.50;6.25;;;34.00;48.00;;;;;;5062430;28;20101;-79
2022/07/26 07:07:45;;;;;;;11.77;6.03;;;33.90;48.00;;;;;;5045870;28;20372;-79
2022/07/26 07:10:11;;;;;;;13.80;6.45;;;33.90;48.40;;;;;;5049059;28;20028;-86
2022/07/26 07:12:38;;;;;;;11.13;5.93;;;33.60;48.30;;;;;;5055992;28;20388;-83
2022/07/26 07:15:04;;;;;;;9.43;6.07;;;33.40;48.70;;;;;;5062030;28;20035;-78
2022/07/26 07:17:30;;;;;;;9.45;6.07;;;33.50;48.10;;;;;;5064787;28;20497;-86
2022/07/26 07:19:56;;;;;;;7.97;5.93;;;33.60;48.40;;;;;;5043684;28;20469;-86
2022/07/26 07:22:22;;;;;;;13.73;6.40;;;33.60;48.00;;;;;;5042117;28;20103;-76
2022/07/26 07:24:47;;;;;;;11.55;6.40;;;33.50;48.60;;;;;;5070476;28;20031;-78
2022/07/26 07:27:13;;;;;;;8.27;6.10;;;33.60;48.60;;;;;;5074965;28;20127;-84
2022/07/26 07:29:40;;;;;;;7.43;5.97;;;33.50;48.60;;;;;;5064453;28;20020;-85
2022/07/26 07:32:05;;;;;;;9.57;6.45;;;33.70;48.60;;;;;;5075423;28;20121;-88
2022/07/26 07:34:31;;;;;;;7.57;6.18;;;33.60;48.60;;;;;;5065219;28;20104;-80
2022/07/26 07:36:57;;;;;;;9.55;6.50;;;33.20;49.00;;;;;;5056537;28;20029;-80
2022/07/26 07:39:23;;;;;;;13.73;6.30;;;33.00;49.60;;;;;;5054383;28;20029;-82
2022/07/26 07:41:48;;;;;;;10.73;6.28;;;32.50;50.10;;;;;;5056245;28;20037;-78
2022/07/26 07:44:14;;;;;;;8.70;6.68;;;32.40;50.50;;;;;;5055733;28;20380;-77
2022/07/26 07:46:40;;;;;;;10.50;6.80;;;32.30;50.50;;;;;;4700437;28;9999714;-80
2022/07/26 07:49:09;;;;;;;8.38;5.80;;;32.20;50.90;;;;;;5055822;28;20486;-80
2022/07/26 07:51:34;;;;;;;7.70;6.20;;;32.50;50.70;;;;;;5052397;28;20040;-78
2022/07/26 07:54:00;;;;;;;11.05;6.28;;;32.90;50.80;;;;;;5053395;28;20029;-80
2022/07/26 07:56:26;;;;;;;9.20;6.20;;;33.20;49.90;;;;;;5041170;28;20028;-84
2022/07/26 07:58:52;;;;;;;8.73;6.63;;;33.20;50.20;;;;;;5059339;28;20024;-80
2022/07/26 08:01:18;;;;;;;10.80;6.45;;;32.90;51.00;;;;;;5050607;28;20033;-78
2022/07/26 08:03:43;;;;;;;13.30;6.85;;;33.20;51.30;;;;;;5054513;28;20104;-86
2022/07/26 08:06:09;;;;;;;9.55;6.85;;;33.60;50.90;;;;;;5058015;28;20115;-77
2022/07/26 08:08:36;;;;;;;9.73;6.25;;;33.50;50.70;;;;;;5057825;28;20025;-81
2022/07/26 08:11:02;;;;;;;11.05;6.35;;;33.50;50.70;;;;;;5042089;28;20059;-77
2022/07/26 08:13:28;;;;;;;11.63;6.75;;;33.20;51.40;;;;;;5052722;28;20032;-77
2022/07/26 08:15:54;;;;;;;9.00;6.07;;;33.00;51.50;;;;;;5053274;28;20192;-87
2022/07/26 08:18:22;;;;;;;8.32;5.78;;;33.20;51.40;;;;;;5052970;28;20037;-76
2022/07/26 08:20:48;;;;;;;10.07;6.05;;;32.80;52.40;;;;;;5055086;28;20029;-82
2022/07/26 08:23:14;;;;;;;8.82;5.93;;;33.10;52.00;;;;;;5070462;28;20074;-84
2022/07/26 08:25:40;;;;;;;8.25;5.95;;;33.20;52.50;;;;;;5053831;28;20502;-79
2022/07/26 08:28:05;;;;;;;8.68;6.15;;;33.10;52.40;;;;;;5051916;28;20567;-80
2022/07/26 08:30:32;;;;;;;12.68;6.57;;;32.80;53.10;;;;;;5052628;28;20710;-78
2022/07/26 08:32:58;;;;;;;10.05;6.13;;;32.20;53.70;;;;;;5052084;28;20024;-80
2022/07/26 08:35:24;;;;;;;11.10;6.15;;;32.40;53.80;;;;;;5044036;28;20091;-77
2022/07/26 08:37:50;;;;;;;9.70;6.05;;;32.70;53.20;;;;;;5040222;28;20060;-82
2022/07/26 08:40:16;;;;;;;9.15;6.30;;;32.60;53.50;;;;;;5055902;28;20068;-79
2022/07/26 08:42:52;;;;;;;10.63;6.20;;;32.80;53.90;;;;;;5071743;28;20107;-79
2022/07/26 08:45:27;;;;;;;10.48;5.85;;;32.70;53.70;;;;;;5050359;28;20480;-80
2022/07/26 08:47:53;;;;;;;9.90;5.80;;;32.60;53.60;;;;;;5064645;28;20086;-82
2022/07/26 08:50:20;;;;;;;9.63;5.80;;;32.70;53.70;;;;;;5061958;28;20090;-80
2022/07/26 08:52:46;;;;;;;8.30;6.25;;;33.00;53.30;;;;;;5069417;28;20070;-80
2022/07/26 08:55:18;;;;;;;9.52;6.32;;;33.30;52.20;;;;;;5070263;28;20033;-87
2022/07/26 08:57:44;;;;;;;8.32;6.07;;;33.20;51.70;;;;;;5054814;28;20017;-78
2022/07/26 09:00:28;;;;;;;11.07;6.78;;;33.10;52.30;;;;;;5062470;28;20127;-81
2022/07/26 09:02:55;;;;;;;10.88;6.20;;;33.20;52.10;;;;;;5059884;28;20033;-80
2022/07/26 09:05:31;;;;;;;9.32;5.80;;;33.40;52.60;;;;;;5055985;28;20029;-77
2022/07/26 09:07:58;;;;;;;8.15;5.90;;;33.40;53.00;;;;;;5042786;28;20060;-87
2022/07/26 09:10:25;;;;;;;11.48;6.28;;;33.20;52.90;;;;;;5051019;28;20023;-81
2022/07/26 09:12:55;;;;;;;8.90;6.03;;;33.60;52.00;;;;;;5071953;28;20020;-88
2022/07/26 09:15:26;;;;;;;8.55;5.97;;;33.90;52.00;;;;;;5071301;28;20028;-77
2022/07/26 09:17:58;;;;;;;9.43;6.22;;;34.20;51.80;;;;;;5066480;28;20021;-83
2022/07/26 09:20:29;;;;;;;8.52;5.78;;;34.40;51.30;;;;;;5072385;28;20037;-81
2022/07/26 09:22:55;;;;;;;7.70;5.75;;;34.90;52.00;;;;;;5050598;28;20132;-84
2022/07/26 09:25:23;;;;;;;9.45;6.00;;;35.00;51.20;;;;;;5050807;28;20097;-83
2022/07/26 09:27:50;;;;;;;7.68;5.63;;;35.20;51.30;;;;;;5049123;28;20040;-79
2022/07/26 09:30:15;;;;;;;7.30;5.95;;;35.50;50.40;;;;;;5035652;28;20052;-82
2022/07/26 09:33:00;;;;;;;8.98;5.47;;;35.80;51.30;;;;;;5051811;28;20124;-87
2022/07/26 09:35:28;;;;;;;9.85;5.60;;;35.80;50.10;;;;;;5037540;28;20591;-91
2022/07/26 09:37:54;;;;;;;6.70;5.30;;;36.10;49.90;;;;;;5054783;28;20021;-87
2022/07/26 09:40:19;;;;;;;7.60;5.88;;;35.70;49.00;;;;;;5050943;28;20037;-89
2022/07/26 09:43:04;;;;;;;8.35;5.55;;;35.20;49.60;;;;;;5052444;28;20031;-80
2022/07/26 09:45:32;;;;;;;8.82;5.68;;;34.50;50.10;;;;;;5037655;28;20027;-77
2022/07/26 09:47:58;;;;;;;7.80;5.90;;;33.60;51.10;;;;;;5052149;28;20036;-83
2022/07/26 09:50:27;;;;;;;7.07;6.03;;;33.60;51.40;;;;;;5050150;28;20028;-79
2022/07/26 09:52:59;;;;;;;10.88;5.50;;;33.40;51.90;;;;;;5052831;28;20119;-81
2022/07/26 09:55:24;;;;;;;8.38;5.80;;;33.00;52.40;;;;;;5053175;28;20114;-78
2022/07/26 09:57:51;;;;;;;9.98;6.20;;;32.70;53.20;;;;;;5052762;28;20060;-80
2022/07/26 10:00:17;;;;;;;9.60;5.75;;;32.10;54.40;;;;;;5054069;28;20049;-82
2022/07/26 10:02:43;;;;;;;11.07;6.63;;;32.00;55.50;;;;;;5053281;28;20078;-79
2022/07/26 10:05:08;;;;;;;10.98;6.03;;;31.40;56.80;;;;;;5052570;28;20033;-83
2022/07/26 10:07:36;;;;;;;8.18;5.75;;;30.80;58.20;;;;;;5054178;28;20025;-81
2022/07/26 10:10:25;;;;;;;16.83;6.50;;;30.70;58.80;;;;;;5051880;28;20071;-76
2022/07/26 10:12:51;;;;;;;25.40;9.03;;;30.70;60.60;;;;;;5033460;28;20109;-75
2022/07/26 10:15:36;;;;;;;14.57;7.70;;;30.40;63.30;;;;;;5031718;28;20048;-77
2022/07/26 10:18:04;;;;;;;11.93;8.05;;;30.10;65.60;;;;;;5037539;28;20033;-81
2022/07/26 10:20:48;;;;;;;14.65;8.10;;;29.70;68.30;;;;;;5052504;28;20460;-79
2022/07/26 10:23:39;;;;;;;15.30;9.30;;;29.60;66.90;;;;;;5052809;28;20131;-75
2022/07/26 10:26:08;;;;;;;13.20;8.90;;;29.70;67.70;;;;;;5046352;28;20506;-80
2022/07/26 10:28:35;;;;;;;12.98;9.82;;;29.60;68.00;;;;;;5053881;28;20013;-79
2022/07/26 10:31:25;;;;;;;12.50;9.57;;;29.70;67.90;;;;;;5054890;28;20083;-89
2022/07/26 10:33:59;;;;;;;11.30;8.40;;;29.80;68.50;;;;;;5055254;28;20014;-89
2022/07/26 10:36:30;;;;;;;11.35;9.88;;;29.90;68.00;;;;;;5056518;28;20033;-84
2022/07/26 10:39:20;;;;;;;12.20;9.38;;;30.00;68.20;;;;;;5058575;28;20112;-94
2022/07/26 10:42:00;;;;;;;10.90;9.15;;;30.20;67.90;;;;;;5059284;28;20033;-95
2022/07/26 10:44:38;;;;;;;12.27;9.63;;;30.50;68.10;;;;;;5059468;28;20129;-86
2022/07/26 10:47:06;;;;;;;10.48;8.85;;;30.60;68.50;;;;;;5059564;28;20025;-84
2022/07/26 10:49:36;;;;;;;11.85;8.50;;;30.50;68.10;;;;;;5057531;28;20025;-78
2022/07/26 10:52:16;;;;;;;10.98;9.30;;;30.20;68.30;;;;;;5055733;28;20037;-82
2022/07/26 10:55:02;;;;;;;11.15;9.75;;;29.80;70.10;;;;;;5054329;28;20026;-81
2022/07/26 10:57:38;;;;;;;11.05;9.43;;;29.40;70.90;;;;;;5054411;28;20060;-80
2022/07/26 11:00:22;;;;;;;12.95;9.20;;;29.50;71.60;;;;;;5053987;28;20041;-82
2022/07/26 11:02:52;;;;;;;9.82;8.48;;;29.80;70.40;;;;;;5053390;28;20502;-82
2022/07/26 11:05:18;;;;;;;11.70;9.77;;;29.80;69.80;;;;;;5054357;28;20606;-83
2022/07/26 11:08:08;;;;;;;12.55;10.00;;;30.10;70.30;;;;;;5055882;28;20029;-79
2022/07/26 11:10:41;;;;;;;;;;;30.10;69.40;;;;;;5056719;28;20070;-79
2022/07/26 11:13:22;;;;;;;11.50;9.88;;;30.00;69.90;;;;;;5056773;28;19951;-80
2022/07/26 11:16:00;;;;;;;11.63;10.35;;;30.10;69.70;;;;;;5055130;28;20476;-80
2022/07/26 11:18:29;;;;;;;14.55;10.50;;;30.20;69.70;;;;;;5056182;28;20025;-75
2022/07/26 11:20:57;;;;;;;11.63;9.43;;;30.30;69.80;;;;;;5055310;28;20460;-80
2022/07/26 11:23:30;;;;;;;13.43;11.00;;;30.00;69.90;;;;;;5054468;28;20025;-82
2022/07/26 11:25:59;;;;;;;13.00;10.20;;;30.00;70.00;;;;;;5054316;28;20040;-76
2022/07/26 11:28:25;;;;;;;12.82;11.05;;;29.80;69.50;;;;;;5054719;28;20025;-79
2022/07/26 11:30:58;;;;;;;13.00;10.48;;;29.80;70.00;;;;;;4357416;28;10000717;-86
2022/07/26 11:33:54;;;;;;;12.30;10.77;;;30.00;70.40;;;;;;5052446;28;20075;-77
2022/07/26 11:36:38;;;;;;;12.73;11.43;;;29.80;69.60;;;;;;5083479;28;20399;-79
2022/07/26 11:39:12;;;;;;;15.45;13.95;;;29.60;70.10;;;;;;5053533;28;20387;-78
2022/07/26 11:41:39;;;;;;;13.65;11.27;;;29.50;70.50;;;;;;5053886;28;20037;-82
2022/07/26 11:44:05;;;;;;;13.98;10.30;;;29.50;70.40;;;;;;5053782;28;20017;-78
2022/07/26 11:46:37;;;;;;;13.52;10.50;;;29.10;71.60;;;;;;5054147;28;20033;-78
2022/07/26 11:49:11;;;;;;;12.35;10.85;;;29.10;71.10;;;;;;5054590;28;20043;-81
2022/07/26 11:51:36;;;;;;;11.18;9.63;;;29.20;71.90;;;;;;5054828;28;20415;-80
2022/07/26 11:54:03;;;;;;;11.95;9.93;;;29.40;71.00;;;;;;5053593;28;20407;-80
2022/07/26 11:56:30;;;;;;;12.02;10.02;;;29.30;70.90;;;;;;5055174;28;20032;-76
2022/07/26 11:58:57;;;;;;;13.00;11.05;;;29.40;71.40;;;;;;5054558;28;20056;-80
2022/07/26 12:01:24;;;;;;;14.73;11.57;;;29.40;70.80;;;;;;5054580;28;20060;-80
2022/07/26 12:03:52;;;;;;;14.00;11.70;;;29.30;70.80;;;;;;5054348;28;20369;-78
2022/07/26 12:06:20;;;;;;;12.80;11.23;;;29.40;70.50;;;;;;5052384;28;20125;-76
2022/07/26 12:08:51;;;;;;;15.43;11.52;;;29.30;71.40;;;;;;5054360;28;20021;-80
2022/07/26 12:11:18;;;;;;;11.07;9.75;;;29.20;71.40;;;;;;4703168;28;9999900;-75
2022/07/26 12:13:58;;;;;;;12.50;10.80;;;29.40;70.90;;;;;;5050379;28;20035;-76
2022/07/26 12:16:34;;;;;;;;;;;29.40;72.10;;;;;;5051021;28;20028;-75
2022/07/26 12:18:59;;;;;;;13.10;11.70;;;29.40;71.40;;;;;;5049321;28;19912;-75
2022/07/26 12:22:08;;;;;;;13.30;10.13;;;29.50;70.60;;;;;;5050941;28;20064;-77
2022/07/26 12:24:43;;;;;;;12.80;11.38;;;29.70;70.30;;;;;;5008252;28;20042;-75
2022/07/26 12:27:26;;;;;;;13.20;11.32;;;29.80;70.30;;;;;;4992059;28;20100;-87
2022/07/26 12:29:55;;;;;;;12.98;11.57;;;29.80;69.50;;;;;;5008456;28;20034;-76
2022/07/26 12:32:40;;;;;;;13.85;12.32;;;29.60;69.40;;;;;;5008325;28;20041;-77
2022/07/26 12:35:24;;;;;;;13.27;11.52;;;29.70;69.10;;;;;;4991289;28;20026;-77
2022/07/26 12:37:52;;;;;;;14.40;11.80;;;29.90;69.70;;;;;;5007370;28;20033;-77
2022/07/26 12:40:28;;;;;;;15.23;12.52;;;29.50;70.50;;;;;;5011999;28;20042;-76
2022/07/26 12:42:59;;;;;;;15.07;13.38;;;29.50;70.10;;;;;;5011869;28;20034;-76
2022/07/26 12:45:29;;;;;;;;;;;29.60;69.70;;;;;;5010688;28;20034;-78
2022/07/26 12:47:56;;;;;;;13.87;12.40;;;29.90;69.00;;;;;;4995134;28;19905;-81
2022/07/26 12:50:24;;;;;;;17.38;12.45;;;29.70;69.80;;;;;;4995376;28;20022;-76